Time;durP1;ratioP1;P1;durP2;ratioP2;P2;SDS_P1;SDS_P2;PMS_P1;PMS_P2;Temp;Humidity;BMP_temperature;BMP_pressure;BME280_temperature;BME280_humidity;BME280_pressure;Samples;Min_cycle;Max_cycle;Signal;HPM_P1;HPM_P2
2022/03/04 00:01:22;;;;;;;29.45;17.45;;;5.10;42.50;;;;;;4993422;28;20045;-55
2022/03/04 00:03:47;;;;;;;33.92;17.88;;;5.00;42.60;;;;;;4992625;28;20522;-59
2022/03/04 00:06:13;;;;;;;30.17;16.63;;;5.00;42.60;;;;;;4975554;28;20461;-59
2022/03/04 00:08:39;;;;;;;29.77;17.92;;;5.00;42.50;;;;;;4992486;28;20109;-61
2022/03/04 00:11:05;;;;;;;30.67;17.98;;;5.00;42.70;;;;;;4993157;28;20030;-60
2022/03/04 00:13:32;;;;;;;31.20;17.60;;;5.00;42.70;;;;;;4993505;28;20073;-57
2022/03/04 00:15:58;;;;;;;32.55;18.30;;;5.00;43.60;;;;;;4992799;28;20019;-56
2022/03/04 00:18:26;;;;;;;30.65;17.80;;;4.90;43.10;;;;;;4992585;28;20034;-58
2022/03/04 00:20:52;;;;;;;32.15;18.60;;;4.90;43.10;;;;;;4993497;28;20030;-59
2022/03/04 00:23:20;;;;;;;33.22;18.17;;;4.90;43.30;;;;;;4993785;28;20022;-59
2022/03/04 00:25:46;;;;;;;29.55;18.15;;;4.80;43.40;;;;;;4975569;28;20037;-58
2022/03/04 00:28:12;;;;;;;30.92;18.17;;;4.80;43.40;;;;;;4993312;28;20026;-57
2022/03/04 00:30:38;;;;;;;34.28;18.90;;;4.80;43.60;;;;;;4992815;28;20053;-61
2022/03/04 00:33:04;;;;;;;34.03;20.13;;;4.80;43.60;;;;;;4975445;28;20054;-59
2022/03/04 00:35:30;;;;;;;33.08;18.10;;;4.80;43.50;;;;;;4993127;28;20030;-60
2022/03/04 00:37:58;;;;;;;32.75;18.83;;;4.80;44.10;;;;;;4992569;28;20097;-62
2022/03/04 00:40:24;;;;;;;31.50;18.60;;;4.80;43.50;;;;;;4993225;28;20023;-59
2022/03/04 00:42:50;;;;;;;31.70;17.55;;;4.90;43.50;;;;;;4992043;28;20030;-59
2022/03/04 00:45:16;;;;;;;36.40;18.90;;;4.80;43.70;;;;;;4993391;28;20041;-55
2022/03/04 00:47:42;;;;;;;32.40;17.95;;;4.80;43.70;;;;;;4992024;28;20470;-60
2022/03/04 00:50:08;;;;;;;33.75;18.73;;;4.80;43.80;;;;;;4975414;28;20117;-58
2022/03/04 00:52:34;;;;;;;33.38;19.15;;;4.80;43.80;;;;;;4992544;28;20058;-65
2022/03/04 00:54:59;;;;;;;31.63;18.98;;;4.80;43.70;;;;;;4991965;28;20382;-61
2022/03/04 00:57:25;;;;;;;30.23;17.38;;;4.80;43.60;;;;;;4974887;28;20491;-56
2022/03/04 00:59:51;;;;;;;32.10;17.67;;;4.80;43.40;;;;;;4991593;28;20041;-60
2022/03/04 01:02:17;;;;;;;31.77;18.60;;;4.80;43.30;;;;;;4993075;28;20153;-58
2022/03/04 01:04:43;;;;;;;37.55;18.60;;;4.90;43.30;;;;;;4991502;28;20121;-60
2022/03/04 01:07:08;;;;;;;30.08;18.02;;;4.90;43.20;;;;;;4974536;28;20173;-58
2022/03/04 01:09:34;;;;;;;32.78;18.70;;;4.90;43.20;;;;;;4992674;28;20034;-59
2022/03/04 01:12:00;;;;;;;32.38;18.35;;;4.90;43.10;;;;;;4991807;28;20061;-58
2022/03/04 01:14:26;;;;;;;32.67;18.73;;;4.90;43.10;;;;;;4991684;28;20366;-58
2022/03/04 01:16:51;;;;;;;33.03;18.13;;;4.90;43.20;;;;;;4991516;28;20030;-57
2022/03/04 01:19:17;;;;;;;34.97;18.65;;;4.90;43.20;;;;;;4992519;28;20488;-58
2022/03/04 01:21:43;;;;;;;31.75;17.75;;;4.90;43.10;;;;;;4991492;28;20030;-60
2022/03/04 01:24:08;;;;;;;34.13;19.48;;;4.90;43.00;;;;;;4992189;28;20422;-58
2022/03/04 01:26:34;;;;;;;31.70;18.50;;;4.90;43.00;;;;;;4992600;28;20031;-58
2022/03/04 01:29:00;;;;;;;32.58;19.05;;;4.90;43.00;;;;;;4973937;28;20462;-59
2022/03/04 01:31:26;;;;;;;31.20;18.70;;;4.90;42.80;;;;;;4974786;28;20026;-60
2022/03/04 01:33:52;;;;;;;32.17;18.35;;;4.80;42.70;;;;;;4974036;28;20412;-59
2022/03/04 01:36:17;;;;;;;34.65;19.60;;;4.80;42.90;;;;;;4974550;28;20035;-64
2022/03/04 01:38:43;;;;;;;33.67;18.85;;;4.70;42.90;;;;;;4991633;28;20062;-61
2022/03/04 01:41:09;;;;;;;38.03;19.15;;;4.70;43.00;;;;;;4974433;28;20026;-60
2022/03/04 01:43:35;;;;;;;35.45;19.13;;;4.70;42.90;;;;;;4974701;28;20381;-59
2022/03/04 01:46:18;;;;;;;34.13;19.08;;;4.70;42.90;;;;;;4991747;28;20026;-57
2022/03/04 01:48:45;;;;;;;35.33;18.17;;;4.70;43.00;;;;;;4991385;28;20026;-59
2022/03/04 01:51:11;;;;;;;35.10;20.05;;;4.80;43.00;;;;;;4974827;28;20065;-57
2022/03/04 01:53:38;;;;;;;38.35;20.15;;;4.70;43.00;;;;;;4992069;28;20026;-62
2022/03/04 01:56:04;;;;;;;37.25;19.15;;;4.70;43.00;;;;;;4992079;28;20027;-58
2022/03/04 01:58:29;;;;;;;36.63;19.90;;;4.70;43.00;;;;;;4991743;28;20049;-58
2022/03/04 02:00:55;;;;;;;44.22;20.63;;;4.70;43.00;;;;;;4991174;28;20102;-58
2022/03/04 02:03:23;;;;;;;34.28;18.60;;;4.70;43.00;;;;;;4991738;28;20105;-57
2022/03/04 02:05:48;;;;;;;34.85;20.98;;;4.70;42.90;;;;;;4990954;28;20057;-58
2022/03/04 02:08:14;;;;;;;39.20;22.00;;;4.70;43.10;;;;;;4991571;28;20019;-56
2022/03/04 02:10:40;;;;;;;34.75;20.27;;;4.70;43.20;;;;;;4973728;28;20030;-65
2022/03/04 02:13:05;;;;;;;40.47;20.60;;;4.70;43.30;;;;;;4990203;28;20033;-58
2022/03/04 02:15:31;;;;;;;37.05;20.33;;;4.70;43.30;;;;;;4958230;28;20034;-62
2022/03/04 02:17:57;;;;;;;39.88;21.27;;;4.70;43.40;;;;;;4973593;28;20409;-57
2022/03/04 02:20:22;;;;;;;39.83;22.08;;;4.70;43.50;;;;;;4991634;28;20045;-58
2022/03/04 02:22:49;;;;;;;37.70;22.02;;;4.60;43.90;;;;;;4973978;28;20366;-57
2022/03/04 02:25:15;;;;;;;35.85;21.55;;;4.60;44.00;;;;;;4991541;28;20132;-58
2022/03/04 02:27:41;;;;;;;40.10;21.48;;;4.60;44.00;;;;;;4991254;28;20030;-63
2022/03/04 02:30:07;;;;;;;38.53;21.35;;;4.60;44.10;;;;;;4974101;28;20034;-57
2022/03/04 02:32:32;;;;;;;38.17;22.85;;;4.60;44.10;;;;;;4991160;28;20110;-58
2022/03/04 02:34:58;;;;;;;38.88;21.52;;;4.60;44.10;;;;;;4973289;28;20030;-55
2022/03/04 02:37:24;;;;;;;40.25;22.50;;;4.60;44.30;;;;;;4991456;28;20031;-57
2022/03/04 02:39:51;;;;;;;38.58;23.38;;;4.50;44.50;;;;;;4990776;28;20041;-58
2022/03/04 02:42:17;;;;;;;38.75;22.05;;;4.50;44.80;;;;;;4994573;28;20034;-58
2022/03/04 02:44:43;;;;;;;43.53;25.00;;;4.40;44.80;;;;;;4977420;28;20038;-55
2022/03/04 02:47:08;;;;;;;44.30;23.33;;;4.40;44.80;;;;;;4994761;28;20363;-59
2022/03/04 02:49:34;;;;;;;45.42;25.13;;;4.40;45.10;;;;;;4995708;28;20062;-55
2022/03/04 02:52:00;;;;;;;49.15;26.25;;;4.40;45.30;;;;;;4977123;28;20451;-56
2022/03/04 02:54:26;;;;;;;40.83;24.73;;;4.40;45.50;;;;;;4995125;28;20081;-58
2022/03/04 02:56:51;;;;;;;46.45;26.48;;;4.30;45.70;;;;;;4994467;28;20026;-58
2022/03/04 02:59:17;;;;;;;46.97;26.00;;;4.30;46.00;;;;;;4977698;28;20373;-57
2022/03/04 03:01:43;;;;;;;50.75;25.70;;;4.20;46.30;;;;;;4976374;28;20117;-59
2022/03/04 03:04:08;;;;;;;43.45;24.13;;;4.20;46.30;;;;;;4994873;28;20085;-58
2022/03/04 03:06:35;;;;;;;49.22;26.42;;;4.20;46.10;;;;;;4995117;28;20026;-61
2022/03/04 03:11:45;;;;;;;48.17;25.98;;;4.30;46.30;;;;;;4994374;28;20030;-57
2022/03/04 03:14:10;;;;;;;49.30;26.80;;;4.20;46.80;;;;;;4994282;28;20030;-59
2022/03/04 03:16:36;;;;;;;49.63;27.17;;;4.20;47.00;;;;;;4994439;28;20473;-59
2022/03/04 03:19:02;;;;;;;54.60;29.17;;;4.20;47.30;;;;;;4994096;28;20037;-59
2022/03/04 03:21:27;;;;;;;52.78;28.75;;;4.20;47.50;;;;;;4994034;28;20110;-58
2022/03/04 03:23:53;;;;;;;52.70;31.08;;;4.20;47.60;;;;;;4976393;28;20081;-60
2022/03/04 03:26:19;;;;;;;53.67;30.35;;;4.30;47.80;;;;;;4977129;28;20038;-60
2022/03/04 03:28:44;;;;;;;55.58;30.02;;;4.30;47.90;;;;;;4993445;28;20117;-58
2022/03/04 03:31:10;;;;;;;56.03;31.15;;;4.30;47.50;;;;;;4994436;28;20019;-61
2022/03/04 03:33:37;;;;;;;58.40;31.77;;;4.30;47.70;;;;;;4994339;28;20173;-60
2022/03/04 03:36:03;;;;;;;59.60;32.97;;;4.30;47.60;;;;;;4993416;28;20027;-57
2022/03/04 03:38:29;;;;;;;66.05;35.95;;;4.20;48.30;;;;;;4976610;28;20031;-58
2022/03/04 03:40:55;;;;;;;62.60;35.00;;;4.20;49.10;;;;;;4993114;28;20404;-58
2022/03/04 03:43:21;;;;;;;61.20;36.00;;;4.10;49.30;;;;;;4994281;28;20039;-60
2022/03/04 03:45:47;;;;;;;66.18;36.53;;;4.00;49.40;;;;;;4993141;28;20030;-60
2022/03/04 03:48:12;;;;;;;77.40;41.67;;;4.00;50.20;;;;;;4993956;28;20030;-59
2022/03/04 03:50:38;;;;;;;73.88;41.08;;;3.90;51.60;;;;;;4976428;28;20092;-59
2022/03/04 03:53:05;;;;;;;70.72;41.25;;;3.80;52.50;;;;;;4992089;28;20546;-57
2022/03/04 03:55:31;;;;;;;78.00;42.28;;;3.70;52.90;;;;;;4976037;28;20068;-58
2022/03/04 04:00:41;;;;;;;80.15;43.00;;;3.80;52.40;;;;;;4993765;28;20129;-63
2022/03/04 04:03:08;;;;;;;86.20;45.40;;;3.80;52.80;;;;;;4994313;28;20026;-56
2022/03/04 04:05:33;;;;;;;82.82;46.05;;;3.80;53.40;;;;;;4976064;28;20030;-59
2022/03/04 04:07:59;;;;;;;86.70;45.08;;;3.70;53.40;;;;;;4992545;28;20446;-57
2022/03/04 04:10:25;;;;;;;85.00;44.90;;;3.70;53.40;;;;;;4994102;28;20038;-55
2022/03/04 04:12:51;;;;;;;84.50;43.42;;;3.70;53.40;;;;;;4992855;28;20024;-60
2022/03/04 04:15:17;;;;;;;83.85;44.10;;;3.60;53.40;;;;;;4993651;28;20458;-57
2022/03/04 04:17:43;;;;;;;82.72;42.95;;;3.60;54.00;;;;;;4975720;28;20077;-63
2022/03/04 04:20:09;;;;;;;77.60;42.10;;;3.70;53.60;;;;;;4976294;28;20057;-57
2022/03/04 04:22:34;;;;;;;76.75;41.40;;;3.70;53.40;;;;;;4993170;28;20069;-59
2022/03/04 04:25:00;;;;;;;82.60;43.63;;;3.80;53.30;;;;;;4975408;28;20037;-59
2022/03/04 04:27:26;;;;;;;84.05;43.70;;;3.80;53.30;;;;;;4993115;28;20026;-57
2022/03/04 04:29:51;;;;;;;85.60;41.53;;;3.90;52.90;;;;;;4992469;28;20030;-59
2022/03/04 04:32:17;;;;;;;74.65;40.90;;;3.90;52.70;;;;;;4992872;28;20105;-56
2022/03/04 04:34:43;;;;;;;73.30;40.17;;;3.90;52.80;;;;;;4992797;28;20395;-63
2022/03/04 04:37:09;;;;;;;76.43;40.92;;;3.90;52.70;;;;;;4975141;28;20492;-57
2022/03/04 04:39:34;;;;;;;68.72;39.55;;;4.00;52.50;;;;;;4975753;28;20397;-61
2022/03/04 04:42:00;;;;;;;79.93;42.30;;;4.00;52.30;;;;;;4992907;28;20068;-58
2022/03/04 04:44:26;;;;;;;75.43;42.42;;;4.10;52.30;;;;;;4975004;28;20027;-57
2022/03/04 04:46:51;;;;;;;80.93;42.65;;;4.10;52.30;;;;;;4974964;28;20393;-56
2022/03/04 04:49:17;;;;;;;79.15;39.95;;;4.10;52.50;;;;;;4975167;28;20031;-59
2022/03/04 04:51:43;;;;;;;80.72;43.47;;;4.00;52.80;;;;;;4974942;28;20267;-61
2022/03/04 04:54:08;;;;;;;83.13;42.97;;;4.00;52.90;;;;;;4975211;28;20065;-59
2022/03/04 04:56:36;;;;;;;81.75;43.03;;;3.90;53.00;;;;;;4992797;28;20035;-62
2022/03/04 04:59:01;;;;;;;78.90;41.67;;;4.00;53.00;;;;;;4992153;28;20134;-59
2022/03/04 05:01:27;;;;;;;80.00;44.35;;;4.10;53.00;;;;;;4975623;28;20125;-59
2022/03/04 05:03:53;;;;;;;83.70;43.45;;;4.10;53.10;;;;;;4991831;28;20112;-55
2022/03/04 05:06:19;;;;;;;79.68;44.50;;;4.10;53.10;;;;;;4992633;28;20442;-56
2022/03/04 05:08:44;;;;;;;77.30;42.88;;;4.10;53.20;;;;;;4991554;28;20080;-60
2022/03/04 05:11:10;;;;;;;80.47;43.75;;;4.10;53.00;;;;;;4975261;28;20026;-59
2022/03/04 05:13:36;;;;;;;78.15;42.42;;;4.20;53.00;;;;;;4992081;28;20031;-62
2022/03/04 05:16:01;;;;;;;78.90;42.53;;;4.20;52.90;;;;;;4992042;28;20423;-60
2022/03/04 05:18:27;;;;;;;79.88;44.20;;;4.20;52.80;;;;;;4992431;28;20058;-58
2022/03/04 05:20:54;;;;;;;78.75;43.10;;;4.10;53.20;;;;;;4991811;28;20031;-56
2022/03/04 05:26:03;;;;;;;83.43;42.40;;;4.00;53.80;;;;;;4991677;28;20033;-59
2022/03/04 05:28:29;;;;;;;88.30;45.78;;;3.90;54.20;;;;;;4974937;28;20060;-63
2022/03/04 05:30:55;;;;;;;93.43;44.58;;;3.90;54.10;;;;;;4991518;28;20378;-58
2022/03/04 05:33:20;;;;;;;96.07;46.05;;;3.90;54.30;;;;;;4991626;28;20117;-60
2022/03/04 05:35:47;;;;;;;113.70;47.33;;;3.90;54.40;;;;;;4991574;28;20034;-59
2022/03/04 05:38:12;;;;;;;86.13;44.38;;;3.90;54.50;;;;;;4992179;28;20026;-59
2022/03/04 05:40:38;;;;;;;90.72;43.20;;;3.90;54.60;;;;;;4991810;28;20105;-62
2022/03/04 05:43:04;;;;;;;92.97;44.05;;;4.00;54.10;;;;;;4973845;28;20113;-59
2022/03/04 05:45:30;;;;;;;85.97;44.78;;;4.10;54.10;;;;;;4992143;28;20045;-60
2022/03/04 05:47:55;;;;;;;80.72;42.75;;;4.00;54.10;;;;;;4991240;28;20030;-59
2022/03/04 05:50:21;;;;;;;77.30;40.22;;;4.00;54.60;;;;;;4991477;28;20118;-57
2022/03/04 05:52:47;;;;;;;81.47;41.35;;;4.10;53.70;;;;;;4989978;28;20480;-58
2022/03/04 05:55:12;;;;;;;85.45;41.03;;;4.10;53.50;;;;;;4972727;28;20034;-53
2022/03/04 05:57:38;;;;;;;78.55;39.83;;;4.10;53.40;;;;;;4992376;28;20037;-56
2022/03/04 06:00:04;;;;;;;84.53;38.72;;;4.10;53.40;;;;;;4974092;28;20030;-55
2022/03/04 06:02:31;;;;;;;69.38;37.88;;;4.10;53.20;;;;;;4990741;28;20117;-56
2022/03/04 06:04:56;;;;;;;74.85;38.35;;;4.10;53.20;;;;;;4990693;28;20035;-56
2022/03/04 06:07:22;;;;;;;77.57;39.90;;;4.10;53.20;;;;;;4973838;28;20088;-59
2022/03/04 06:09:48;;;;;;;82.57;38.72;;;4.10;53.20;;;;;;4990697;28;20478;-55
2022/03/04 06:12:13;;;;;;;69.30;35.47;;;4.00;53.40;;;;;;4991202;28;20092;-53
2022/03/04 06:14:39;;;;;;;71.55;37.45;;;4.00;53.50;;;;;;4991383;28;20109;-57
2022/03/04 06:17:05;;;;;;;71.93;36.90;;;3.90;53.60;;;;;;4994254;28;20022;-55
2022/03/04 06:19:31;;;;;;;81.13;37.65;;;4.00;53.50;;;;;;4995535;28;20069;-52
2022/03/04 06:21:57;;;;;;;73.90;36.15;;;4.00;53.40;;;;;;4961098;28;20389;-56
2022/03/04 06:24:23;;;;;;;79.90;36.30;;;3.90;53.50;;;;;;4995618;28;20030;-56
2022/03/04 06:26:49;;;;;;;74.55;35.15;;;3.90;53.40;;;;;;4977600;28;20458;-52
2022/03/04 06:29:15;;;;;;;70.15;34.25;;;4.00;53.10;;;;;;4995414;28;20082;-52
2022/03/04 06:31:41;;;;;;;66.32;31.98;;;4.10;52.80;;;;;;4995813;28;20130;-64
2022/03/04 06:34:07;;;;;;;63.83;31.10;;;4.20;52.30;;;;;;4977162;28;20129;-57
2022/03/04 06:36:33;;;;;;;63.95;31.17;;;4.10;51.90;;;;;;4977783;28;20057;-59
2022/03/04 06:38:59;;;;;;;66.95;31.45;;;4.10;52.00;;;;;;4994261;28;20049;-55
2022/03/04 06:41:24;;;;;;;67.43;31.40;;;4.10;51.90;;;;;;4995356;28;20149;-55
2022/03/04 06:43:50;;;;;;;72.50;32.55;;;4.10;51.70;;;;;;4977306;28;20034;-60
2022/03/04 06:46:16;;;;;;;85.80;32.70;;;4.30;51.70;;;;;;4977443;28;20096;-61
2022/03/04 06:48:42;;;;;;;61.08;31.52;;;4.20;51.50;;;;;;4994803;28;20027;-62
2022/03/04 06:51:08;;;;;;;57.72;29.35;;;4.30;51.50;;;;;;4994553;28;20038;-60
2022/03/04 06:53:34;;;;;;;57.83;32.35;;;4.40;51.20;;;;;;4977083;28;20035;-53
2022/03/04 06:56:00;;;;;;;59.35;31.33;;;4.50;50.90;;;;;;4994253;28;20042;-56
2022/03/04 06:58:26;;;;;;;56.25;30.98;;;4.50;50.80;;;;;;4994736;28;20037;-56
2022/03/04 07:00:52;;;;;;;75.43;31.73;;;4.40;50.80;;;;;;4976868;28;20491;-59
2022/03/04 07:03:18;;;;;;;62.25;31.00;;;4.40;51.00;;;;;;4977181;28;20113;-61
2022/03/04 07:05:45;;;;;;;62.42;31.13;;;4.30;51.00;;;;;;4994466;28;20026;-63
2022/03/04 07:08:12;;;;;;;55.58;30.90;;;4.30;51.00;;;;;;4977128;28;20029;-58
2022/03/04 07:10:45;;;;;;;60.05;32.15;;;4.30;51.00;;;;;;4994348;28;20065;-58
2022/03/04 07:13:12;;;;;;;69.30;36.00;;;4.30;51.00;;;;;;4994290;28;20135;-59
2022/03/04 07:15:38;;;;;;;70.30;32.50;;;4.30;51.00;;;;;;4976610;28;20042;-57
2022/03/04 07:18:04;;;;;;;58.80;32.00;;;4.30;51.00;;;;;;4974963;28;20026;-61
2022/03/04 07:20:30;;;;;;;59.20;32.55;;;4.30;51.00;;;;;;4992200;28;20034;-62
2022/03/04 07:22:58;;;;;;;63.00;33.35;;;4.30;51.20;;;;;;4991782;28;20501;-61
2022/03/04 07:25:23;;;;;;;59.72;32.15;;;4.40;51.30;;;;;;4958510;28;20034;-60
2022/03/04 07:27:49;;;;;;;57.78;32.47;;;4.40;51.10;;;;;;4992858;28;20432;-56
2022/03/04 07:30:17;;;;;;;72.85;32.83;;;4.50;50.80;;;;;;4960610;28;20027;-58
2022/03/04 07:32:45;;;;;;;59.95;31.48;;;4.50;51.00;;;;;;4991105;28;20169;-63
2022/03/04 07:35:11;;;;;;;54.28;28.88;;;4.50;51.10;;;;;;4991922;28;20054;-57
2022/03/04 07:37:39;;;;;;;53.00;30.60;;;4.60;50.80;;;;;;4991459;28;20035;-60
2022/03/04 07:40:07;;;;;;;56.20;31.70;;;4.70;50.60;;;;;;4991268;28;20488;-60
2022/03/04 07:42:34;;;;;;;58.10;31.77;;;4.70;50.50;;;;;;4994098;28;20033;-60
2022/03/04 07:44:59;;;;;;;59.15;32.10;;;4.70;50.60;;;;;;4993828;28;20030;-57
2022/03/04 07:47:26;;;;;;;62.50;31.33;;;4.70;51.10;;;;;;4994283;28;20055;-56
2022/03/04 07:49:52;;;;;;;60.03;34.08;;;4.80;50.40;;;;;;4976567;28;20080;-59
2022/03/04 07:52:17;;;;;;;68.82;33.03;;;4.90;50.20;;;;;;4994475;28;20026;-58
2022/03/04 07:54:44;;;;;;;61.65;31.75;;;4.90;50.20;;;;;;4994073;28;20529;-58
2022/03/04 07:57:10;;;;;;;60.53;34.35;;;4.90;50.00;;;;;;4993551;28;20117;-59
2022/03/04 07:59:36;;;;;;;59.63;32.80;;;4.80;50.10;;;;;;4993769;28;20024;-53
2022/03/04 08:02:02;;;;;;;57.45;32.22;;;4.90;50.20;;;;;;4993771;28;20448;-60
2022/03/04 08:04:28;;;;;;;58.53;31.77;;;4.90;50.00;;;;;;4976434;28;20053;-61
2022/03/04 08:06:55;;;;;;;58.35;32.35;;;4.90;49.90;;;;;;4975117;28;20042;-59
2022/03/04 08:09:22;;;;;;;56.85;31.65;;;5.00;49.80;;;;;;4993563;28;20381;-63
2022/03/04 08:11:49;;;;;;;57.70;33.22;;;5.00;49.80;;;;;;4993446;28;20036;-55
2022/03/04 08:14:15;;;;;;;57.15;32.83;;;5.20;49.60;;;;;;4976902;28;20496;-55
2022/03/04 08:16:41;;;;;;;59.47;33.67;;;5.30;49.40;;;;;;4993974;28;20077;-58
2022/03/04 08:19:07;;;;;;;56.67;33.20;;;5.30;49.10;;;;;;4991544;28;20102;-54
2022/03/04 08:21:33;;;;;;;73.00;35.33;;;5.60;49.30;;;;;;4992968;28;20030;-58
2022/03/04 08:23:58;;;;;;;69.55;35.03;;;6.50;49.10;;;;;;4993055;28;20030;-50
2022/03/04 08:26:24;;;;;;;56.47;34.35;;;8.70;46.50;;;;;;4975847;28;20031;-59
2022/03/04 08:28:50;;;;;;;54.78;34.85;;;10.70;42.00;;;;;;4975191;28;20125;-57
2022/03/04 08:31:16;;;;;;;70.35;37.15;;;11.80;39.20;;;;;;4974686;28;20031;-61
2022/03/04 08:33:44;;;;;;;76.55;38.88;;;11.50;36.70;;;;;;4972024;28;20081;-63
2022/03/04 08:36:11;;;;;;;62.05;37.38;;;10.60;37.50;;;;;;4971785;28;20485;-60
2022/03/04 08:38:37;;;;;;;59.90;36.58;;;10.00;38.70;;;;;;4990641;28;20022;-59
2022/03/04 08:41:03;;;;;;;61.42;37.17;;;9.50;39.50;;;;;;4974334;28;20037;-60
2022/03/04 08:43:31;;;;;;;63.22;36.55;;;9.40;39.80;;;;;;4974685;28;20449;-60
2022/03/04 08:45:57;;;;;;;65.80;36.25;;;9.50;40.20;;;;;;4991480;28;20026;-67
2022/03/04 08:48:23;;;;;;;63.67;36.05;;;9.90;40.50;;;;;;4974694;28;20470;-60
2022/03/04 08:50:49;;;;;;;53.00;33.33;;;10.10;39.20;;;;;;4973698;28;20393;-61
2022/03/04 08:53:15;;;;;;;50.55;32.80;;;10.10;38.40;;;;;;4992363;28;20027;-63
2022/03/04 08:55:44;;;;;;;51.25;31.75;;;9.80;38.50;;;;;;4974754;28;20038;-62
2022/03/04 08:58:10;;;;;;;54.15;32.20;;;9.60;38.90;;;;;;4974343;28;20034;-57
2022/03/04 09:00:36;;;;;;;55.22;32.03;;;9.60;38.90;;;;;;4992934;28;20023;-58
2022/03/04 09:03:02;;;;;;;57.47;32.15;;;9.60;38.60;;;;;;4974868;28;20034;-61
2022/03/04 09:05:28;;;;;;;54.05;30.85;;;9.60;38.90;;;;;;4975978;28;20034;-58
2022/03/04 09:07:54;;;;;;;54.05;32.20;;;9.60;38.10;;;;;;4992392;28;20482;-59
2022/03/04 09:10:19;;;;;;;57.35;33.60;;;9.40;38.70;;;;;;4992480;28;20064;-60
2022/03/04 09:12:45;;;;;;;60.85;32.15;;;9.20;39.00;;;;;;4992860;28;20037;-60
2022/03/04 09:15:12;;;;;;;48.25;30.55;;;9.20;39.20;;;;;;4992576;28;20090;-61
2022/03/04 09:17:40;;;;;;;53.60;32.97;;;9.00;39.20;;;;;;4974980;28;20062;-61
2022/03/04 09:20:06;;;;;;;50.75;32.50;;;9.00;39.50;;;;;;4974915;28;20061;-61
2022/03/04 09:22:32;;;;;;;55.40;31.88;;;8.80;39.60;;;;;;4975438;28;20026;-60
2022/03/04 09:24:58;;;;;;;51.58;30.95;;;8.60;40.10;;;;;;4958389;28;20030;-59
2022/03/04 09:27:24;;;;;;;69.43;32.75;;;8.40;40.40;;;;;;4992434;28;20038;-61
2022/03/04 09:29:50;;;;;;;48.55;31.08;;;8.30;40.80;;;;;;4974838;28;20026;-61
2022/03/04 09:32:15;;;;;;;47.80;30.95;;;8.30;41.00;;;;;;4975092;28;20026;-62
2022/03/04 09:34:41;;;;;;;55.67;32.03;;;8.20;41.10;;;;;;4992082;28;20126;-62
2022/03/04 09:37:25;;;;;;;53.15;33.22;;;8.20;41.40;;;;;;4991964;28;20099;-62
2022/03/04 09:39:51;;;;;;;50.85;32.85;;;8.30;41.50;;;;;;4991966;28;20034;-60
2022/03/04 09:42:18;;;;;;;51.60;32.05;;;8.20;41.30;;;;;;4992693;28;20160;-61
2022/03/04 09:44:44;;;;;;;56.05;32.72;;;8.10;41.50;;;;;;4974874;28;20033;-61
2022/03/04 09:47:10;;;;;;;60.65;33.70;;;8.00;41.90;;;;;;4974396;28;20034;-61
2022/03/04 09:49:38;;;;;;;55.97;33.05;;;8.20;42.00;;;;;;4991506;28;20082;-59
2022/03/04 09:52:05;;;;;;;54.65;33.08;;;8.10;41.90;;;;;;4973977;28;20117;-61
2022/03/04 09:54:32;;;;;;;53.90;33.65;;;8.30;41.70;;;;;;4973008;28;20031;-63
2022/03/04 09:56:58;;;;;;;54.30;32.67;;;8.40;41.40;;;;;;4991403;28;20026;-64
2022/03/04 09:59:25;;;;;;;54.58;32.60;;;8.60;41.40;;;;;;4992523;28;20110;-64
2022/03/04 10:01:51;;;;;;;57.13;35.30;;;8.60;41.20;;;;;;4991790;28;20034;-71
2022/03/04 10:04:17;;;;;;;60.20;34.15;;;8.60;41.30;;;;;;4974887;28;20513;-63
2022/03/04 10:06:49;;;;;;;53.50;33.88;;;8.60;41.00;;;;;;4992166;28;20034;-63
2022/03/04 10:09:41;;;;;;;70.53;33.45;;;8.50;41.10;;;;;;4974250;28;20026;-64
2022/03/04 10:12:08;;;;;;;54.72;32.22;;;8.50;41.70;;;;;;4974392;28;20027;-61
2022/03/04 10:14:34;;;;;;;50.63;32.97;;;8.50;41.50;;;;;;4975197;28;20034;-63
2022/03/04 10:17:00;;;;;;;52.08;31.45;;;8.40;41.40;;;;;;4990839;28;20388;-64
2022/03/04 10:19:25;;;;;;;65.90;34.45;;;8.30;41.40;;;;;;4991768;28;20061;-65
2022/03/04 10:21:54;;;;;;;51.97;30.98;;;8.30;41.90;;;;;;4991849;28;20465;-71
2022/03/04 10:24:31;;;;;;;50.08;31.65;;;8.60;41.60;;;;;;4991806;28;20065;-65
2022/03/04 10:27:10;;;;;;;49.28;31.13;;;8.90;41.00;;;;;;4974208;28;20065;-61
2022/03/04 10:29:42;;;;;;;44.58;30.27;;;9.00;40.30;;;;;;4974558;28;20026;-63
2022/03/04 10:32:13;;;;;;;49.72;30.15;;;9.00;40.30;;;;;;4974236;28;20331;-63
2022/03/04 10:35:07;;;;;;;49.15;29.70;;;9.00;40.50;;;;;;4974042;28;20109;-64
2022/03/04 10:37:44;;;;;;;50.03;30.42;;;9.00;40.10;;;;;;4974405;28;20030;-64
2022/03/04 10:40:16;;;;;;;45.10;28.33;;;8.90;40.30;;;;;;4973752;28;20046;-63
2022/03/04 10:42:46;;;;;;;45.88;29.05;;;8.80;40.10;;;;;;4991683;28;20033;-62
2022/03/04 10:45:14;;;;;;;43.70;27.60;;;8.60;40.50;;;;;;4973717;28;20034;-64
2022/03/04 10:47:40;;;;;;;44.67;27.48;;;8.50;40.70;;;;;;4974168;28;20030;-63
2022/03/04 10:50:06;;;;;;;53.97;30.10;;;8.60;41.00;;;;;;4991390;28;20027;-64
2022/03/04 10:52:32;;;;;;;51.75;29.20;;;8.60;41.10;;;;;;4991620;28;20359;-63
2022/03/04 10:54:58;;;;;;;48.30;29.98;;;8.70;41.10;;;;;;4973660;28;20093;-63
2022/03/04 10:57:23;;;;;;;48.42;29.80;;;8.80;40.70;;;;;;4991154;28;20385;-64
2022/03/04 10:59:56;;;;;;;50.55;30.05;;;8.80;40.60;;;;;;4973983;28;20204;-64
2022/03/04 11:02:43;;;;;;;50.43;28.90;;;8.80;40.60;;;;;;4976050;28;20327;-63
2022/03/04 11:05:09;;;;;;;43.75;27.85;;;8.80;40.70;;;;;;4976473;28;20097;-65
2022/03/04 11:07:38;;;;;;;44.88;27.38;;;8.90;40.60;;;;;;4961712;28;20045;-65
2022/03/04 11:10:04;;;;;;;45.92;28.83;;;8.80;40.40;;;;;;4994412;28;20034;-63
2022/03/04 11:12:30;;;;;;;44.35;27.08;;;8.90;40.50;;;;;;4995437;28;20421;-65
2022/03/04 11:14:57;;;;;;;51.03;28.52;;;9.00;40.10;;;;;;4994763;28;20023;-68
2022/03/04 11:17:24;;;;;;;44.95;26.75;;;9.20;39.90;;;;;;4995165;28;20031;-64
2022/03/04 11:19:51;;;;;;;49.85;27.23;;;9.40;39.60;;;;;;4995298;28;20034;-64
2022/03/04 11:22:17;;;;;;;41.45;25.20;;;9.50;39.10;;;;;;4994431;28;20026;-64
2022/03/04 11:24:44;;;;;;;39.63;25.15;;;9.40;38.60;;;;;;4977769;28;20402;-64
2022/03/04 11:27:13;;;;;;;44.13;26.02;;;9.30;39.10;;;;;;4994024;28;20030;-65
2022/03/04 11:29:39;;;;;;;40.63;26.25;;;9.40;39.20;;;;;;4994664;28;20031;-63
2022/03/04 11:32:09;;;;;;;37.75;25.50;;;9.50;39.10;;;;;;4994190;28;20085;-64
2022/03/04 11:34:40;;;;;;;43.53;25.77;;;9.50;38.90;;;;;;4976418;28;20401;-66
2022/03/04 11:37:15;;;;;;;51.42;26.60;;;9.40;38.90;;;;;;4976187;28;20062;-65
2022/03/04 11:40:32;;;;;;;45.72;26.80;;;9.50;39.10;;;;;;4977338;28;20133;-65
2022/03/04 11:42:52;;;;;;;47.22;27.10;;;9.60;38.50;;;;;;4994270;28;20466;-64
2022/03/04 11:45:32;;;;;;;54.00;29.23;;;9.70;38.40;;;;;;4993972;28;20054;-65
2022/03/04 11:48:10;;;;;;;71.65;40.35;;;9.90;37.70;;;;;;4994502;28;20129;-69
2022/03/04 11:50:47;;;;;;;42.72;28.50;;;9.90;37.80;;;;;;4976835;28;20030;-64
2022/03/04 11:53:17;;;;;;;46.55;25.98;;;9.70;37.80;;;;;;4994126;28;20022;-64
2022/03/04 11:56:11;;;;;;;41.00;23.83;;;9.80;38.30;;;;;;4976733;28;20480;-64
2022/03/04 11:59:07;;;;;;;35.25;23.33;;;9.80;37.60;;;;;;4976509;28;20038;-65
2022/03/04 12:01:37;;;;;;;43.40;23.83;;;9.70;37.90;;;;;;4992220;28;20030;-64
2022/03/04 12:04:15;;;;;;;37.83;24.40;;;9.80;37.90;;;;;;4976432;28;20038;-64
2022/03/04 12:06:41;;;;;;;38.53;27.05;;;9.70;37.90;;;;;;4976331;28;20045;-63
2022/03/04 12:09:29;;;;;;;46.83;27.52;;;9.80;38.00;;;;;;4976137;28;20089;-63
2022/03/04 12:12:17;;;;;;;49.53;25.90;;;9.80;37.90;;;;;;4976663;28;20109;-64
2022/03/04 12:14:55;;;;;;;43.90;26.15;;;9.70;38.20;;;;;;4992720;28;20018;-62
2022/03/04 12:17:22;;;;;;;40.60;25.20;;;9.80;38.00;;;;;;4975763;28;20125;-62
2022/03/04 12:19:55;;;;;;;52.40;24.80;;;9.90;37.60;;;;;;4993483;28;20049;-63
2022/03/04 12:22:26;;;;;;;38.13;24.07;;;9.90;37.30;;;;;;4975764;28;20323;-63
2022/03/04 12:24:59;;;;;;;39.58;25.20;;;10.10;37.50;;;;;;4993375;28;20050;-62
2022/03/04 12:27:53;;;;;;;43.10;27.73;;;10.30;37.00;;;;;;4975597;28;20033;-63
2022/03/04 12:30:23;;;;;;;46.78;25.38;;;10.40;36.30;;;;;;4973514;28;20374;-63
2022/03/04 12:32:53;;;;;;;38.58;25.05;;;10.60;36.40;;;;;;4992270;28;20050;-63
2022/03/04 12:35:21;;;;;;;51.28;25.95;;;10.50;36.60;;;;;;4992572;28;20089;-66
2022/03/04 12:37:48;;;;;;;47.10;21.90;;;10.60;36.10;;;;;;4975615;28;20031;-63
2022/03/04 12:40:16;;;;;;;38.78;23.33;;;10.70;35.40;;;;;;4975476;28;20049;-65
2022/03/04 12:42:52;;;;;;;30.63;21.05;;;10.60;35.50;;;;;;4975485;28;20034;-63
2022/03/04 12:45:18;;;;;;;31.13;21.08;;;10.50;35.70;;;;;;4975227;28;20125;-64